Calmer, Arkansas
Current Conditions -  °F | °C
As of 8:53 PM on Friday 21 Nov 2014 (Local Time) from KPBF Reporting Station
Haze Haze  
Wind Chill: 51°   Ceiling: 6500
Heat Index: 51°   Visibility: 5mi
Dew Point: 49°   Wind: 5mph
Humidity: 92%   Direction: 70°ENE
Pressure: 30.25"   Gusts: NA
Location:  33.947°N, 92.1633°W
Report Text: KPBF 220253Z AUTO 07004KT 5SM BR OVC065 11/09 A3025 RMK AO2 SLP244 60001 T01060094 50000
Loading
Personal Weather Stations






























Interactive Weather Map New forecast layout! Learn more

10-Day Weather Forecast

Advertisements
Track Severe Weather on mobile